Time;durP1;ratioP1;P1;durP2;ratioP2;P2;SDS_P1;SDS_P2;PMS_P1;PMS_P2;Temp;Humidity;BMP_temperature;BMP_pressure;BME280_temperature;BME280_humidity;BME280_pressure;Samples;Min_cycle;Max_cycle;Signal;HPM_P1;HPM_P2
2023/06/02 00:01:04;;;;;;;8.43;3.33;;;12.70;99.90;;;;;;5047816;28;20045;-63
2023/06/02 00:03:32;;;;;;;8.80;3.30;;;12.70;99.90;;;;;;5054407;28;20028;-63
2023/06/02 00:06:01;;;;;;;8.77;3.70;;;12.60;99.90;;;;;;5051596;28;20033;-64
2023/06/02 00:08:27;;;;;;;5.88;3.47;;;12.60;99.90;;;;;;5046598;28;20128;-64
2023/06/02 00:10:53;;;;;;;5.28;3.50;;;12.70;99.90;;;;;;5058313;28;20076;-64
2023/06/02 00:13:19;;;;;;;9.23;3.92;;;12.40;99.90;;;;;;5056080;28;20079;-63
2023/06/02 00:15:45;;;;;;;8.80;3.53;;;12.40;99.90;;;;;;5055111;28;20041;-64
2023/06/02 00:18:11;;;;;;;8.13;3.60;;;12.40;99.90;;;;;;5055157;28;20196;-63
2023/06/02 00:20:37;;;;;;;5.15;3.40;;;12.40;99.90;;;;;;5059090;28;20032;-63
2023/06/02 00:23:03;;;;;;;10.30;3.60;;;12.50;99.90;;;;;;5055680;28;20068;-62
2023/06/02 00:25:30;;;;;;;8.57;3.85;;;12.50;99.90;;;;;;5051261;28;20091;-64
2023/06/02 00:27:56;;;;;;;7.22;3.80;;;12.30;99.90;;;;;;5058049;28;20123;-64
2023/06/02 00:30:22;;;;;;;10.20;3.40;;;12.20;99.90;;;;;;5053855;28;20108;-63
2023/06/02 00:32:47;;;;;;;10.88;3.90;;;12.20;99.90;;;;;;5052976;28;20119;-64
2023/06/02 00:35:13;;;;;;;9.93;4.03;;;12.20;99.90;;;;;;5054303;28;20036;-63
2023/06/02 00:37:38;;;;;;;8.13;3.80;;;12.00;99.90;;;;;;5056448;28;20112;-63
2023/06/02 00:40:05;;;;;;;8.07;3.60;;;12.00;99.90;;;;;;5053313;28;20048;-63
2023/06/02 00:42:31;;;;;;;8.25;3.35;;;12.00;99.90;;;;;;5051869;28;20048;-63
2023/06/02 00:44:57;;;;;;;8.93;3.45;;;12.20;99.90;;;;;;5056196;28;20036;-64
2023/06/02 00:47:22;;;;;;;10.20;3.70;;;12.30;99.90;;;;;;5051895;28;20041;-63
2023/06/02 00:49:48;;;;;;;11.85;4.28;;;12.20;99.90;;;;;;5057105;28;20089;-63
2023/06/02 00:52:15;;;;;;;11.07;3.88;;;12.10;99.90;;;;;;5057588;28;20033;-63
2023/06/02 00:54:41;;;;;;;9.80;3.72;;;12.50;99.90;;;;;;5050830;28;20029;-63
2023/06/02 00:57:07;;;;;;;11.52;4.20;;;12.10;99.90;;;;;;5052003;28;20708;-62
2023/06/02 00:59:33;;;;;;;11.77;4.22;;;12.10;99.90;;;;;;5052759;28;20029;-63
2023/06/02 01:01:59;;;;;;;9.52;3.75;;;12.00;99.90;;;;;;5057061;28;20029;-63
2023/06/02 01:04:26;;;;;;;10.10;4.10;;;12.00;99.90;;;;;;5054474;28;20021;-63
2023/06/02 01:06:52;;;;;;;8.25;3.97;;;11.90;99.90;;;;;;5051503;28;20040;-64
2023/06/02 01:09:19;;;;;;;12.80;3.83;;;12.00;99.90;;;;;;5053689;28;20016;-63
2023/06/02 01:11:47;;;;;;;10.38;3.95;;;12.30;99.90;;;;;;5051683;28;20554;-63
2023/06/02 01:14:13;;;;;;;10.05;4.40;;;12.10;99.90;;;;;;5055420;28;20035;-65
2023/06/02 01:16:38;;;;;;;13.13;4.53;;;12.10;99.90;;;;;;5056236;28;20028;-63
2023/06/02 01:19:06;;;;;;;13.82;4.10;;;12.10;99.90;;;;;;5053113;28;20060;-63
2023/06/02 01:21:37;;;;;;;10.10;3.80;;;12.10;99.90;;;;;;5059622;28;20045;-65
2023/06/02 01:24:03;;;;;;;6.80;3.80;;;12.10;99.90;;;;;;5055948;28;20475;-63
2023/06/02 01:26:34;;;;;;;12.98;4.20;;;12.20;99.90;;;;;;5054409;28;20029;-65
2023/06/02 01:29:01;;;;;;;10.20;3.80;;;12.20;99.90;;;;;;5057421;28;20025;-65
2023/06/02 01:31:38;;;;;;;10.10;3.95;;;12.00;99.90;;;;;;5055193;28;20047;-64
2023/06/02 01:34:26;;;;;;;13.18;4.20;;;12.00;99.90;;;;;;5054647;28;20051;-63
2023/06/02 01:36:56;;;;;;;10.38;3.72;;;12.00;99.90;;;;;;5054140;28;20059;-65
2023/06/02 01:39:23;;;;;;;14.15;3.97;;;12.40;99.90;;;;;;5056192;28;20204;-63
2023/06/02 01:41:51;;;;;;;16.38;3.67;;;12.30;99.90;;;;;;5056493;28;20040;-65
2023/06/02 01:44:18;;;;;;;11.60;3.45;;;12.30;99.90;;;;;;5052998;28;20032;-65
2023/06/02 01:46:44;;;;;;;8.45;3.28;;;12.30;99.90;;;;;;5056507;28;20051;-65
2023/06/02 01:49:17;;;;;;;13.82;4.40;;;12.30;99.90;;;;;;5053759;28;20032;-63
2023/06/02 01:51:43;;;;;;;15.37;4.33;;;12.20;99.90;;;;;;5054466;28;20028;-64
2023/06/02 01:54:09;;;;;;;13.35;4.60;;;12.00;99.90;;;;;;5057043;28;20037;-63
2023/06/02 01:56:34;;;;;;;13.07;4.05;;;11.90;99.90;;;;;;5056917;28;20025;-64
2023/06/02 01:59:01;;;;;;;15.35;3.90;;;11.70;99.90;;;;;;5061411;28;20029;-65
2023/06/02 02:01:30;;;;;;;16.98;4.50;;;11.40;99.90;;;;;;5055807;28;20480;-65
2023/06/02 02:03:56;;;;;;;10.55;3.85;;;11.80;99.90;;;;;;5059423;28;20029;-65
2023/06/02 02:06:29;;;;;;;11.38;3.63;;;11.80;99.90;;;;;;5055310;28;20505;-64
2023/06/02 02:08:58;;;;;;;11.50;4.03;;;11.80;99.90;;;;;;5054456;28;20028;-64
2023/06/02 02:11:26;;;;;;;14.60;3.90;;;11.70;99.90;;;;;;5057676;28;20522;-65
2023/06/02 02:13:52;;;;;;;11.50;3.45;;;11.40;99.90;;;;;;5057839;28;20684;-65
2023/06/02 02:16:17;;;;;;;9.55;3.60;;;11.90;99.90;;;;;;5057358;28;20378;-64
2023/06/02 02:18:45;;;;;;;15.75;3.70;;;11.90;99.90;;;;;;5055649;28;20039;-65
2023/06/02 02:21:12;;;;;;;14.43;3.60;;;11.90;99.90;;;;;;5061654;28;20400;-63
2023/06/02 02:23:37;;;;;;;17.67;3.40;;;11.60;99.90;;;;;;5057094;28;20590;-65
2023/06/02 02:26:03;;;;;;;14.60;3.92;;;11.40;99.90;;;;;;5057872;28;20063;-63
2023/06/02 02:28:29;;;;;;;11.45;3.25;;;11.20;99.90;;;;;;5058380;28;20025;-63
2023/06/02 02:30:54;;;;;;;13.30;3.78;;;11.20;99.90;;;;;;5059900;28;20074;-64
2023/06/02 02:33:20;;;;;;;16.23;4.28;;;11.40;99.90;;;;;;5055967;28;20033;-64
2023/06/02 02:35:46;;;;;;;11.70;3.65;;;11.20;99.90;;;;;;5058092;28;20024;-65
2023/06/02 02:38:12;;;;;;;10.68;4.05;;;11.30;99.90;;;;;;5055020;28;20336;-64
2023/06/02 02:40:37;;;;;;;11.75;4.00;;;11.40;99.90;;;;;;5051834;28;20040;-64
2023/06/02 02:43:03;;;;;;;9.80;3.88;;;11.60;99.90;;;;;;5052793;28;20442;-63
2023/06/02 02:45:28;;;;;;;9.65;3.38;;;11.50;99.90;;;;;;5052922;28;20036;-66
2023/06/02 02:47:54;;;;;;;10.13;3.80;;;11.50;99.90;;;;;;5055654;28;20119;-65
2023/06/02 02:50:20;;;;;;;10.93;3.22;;;11.40;99.90;;;;;;5049098;28;20464;-63
2023/06/02 02:52:45;;;;;;;11.93;3.85;;;11.50;99.90;;;;;;5051227;28;20078;-63
2023/06/02 02:55:11;;;;;;;10.50;3.42;;;11.50;99.90;;;;;;5050162;28;20040;-64
2023/06/02 02:57:37;;;;;;;11.20;3.58;;;11.70;99.90;;;;;;5048780;28;20037;-64
2023/06/02 03:00:06;;;;;;;12.88;3.65;;;11.50;99.90;;;;;;5048068;28;20029;-63
2023/06/02 03:02:31;;;;;;;8.85;3.42;;;11.40;99.90;;;;;;5055649;28;20554;-65
2023/06/02 03:04:57;;;;;;;15.48;3.58;;;11.50;99.90;;;;;;5050329;28;20132;-64
2023/06/02 03:07:24;;;;;;;13.48;3.53;;;11.30;99.90;;;;;;5055103;28;20059;-64
2023/06/02 03:09:50;;;;;;;12.57;3.72;;;11.30;99.90;;;;;;5050958;28;20116;-64
2023/06/02 03:12:16;;;;;;;10.70;3.92;;;11.20;99.90;;;;;;5050037;28;20754;-63
2023/06/02 03:14:41;;;;;;;11.57;3.60;;;11.30;99.90;;;;;;5052970;28;20067;-64
2023/06/02 03:17:07;;;;;;;9.48;3.33;;;11.20;99.90;;;;;;5047498;28;20036;-63
2023/06/02 03:19:34;;;;;;;15.13;4.03;;;11.30;99.90;;;;;;5048494;28;20033;-63
2023/06/02 03:22:00;;;;;;;12.70;3.90;;;11.40;99.90;;;;;;5050040;28;20469;-64
2023/06/02 03:24:25;;;;;;;13.73;4.22;;;11.30;99.90;;;;;;5048594;28;20120;-63
2023/06/02 03:26:52;;;;;;;11.80;4.00;;;11.30;99.90;;;;;;5046977;28;20068;-64
2023/06/02 03:29:17;;;;;;;13.05;4.15;;;11.30;99.90;;;;;;5048378;28;20033;-63
2023/06/02 03:31:43;;;;;;;14.10;3.80;;;11.30;99.90;;;;;;5049987;28;20441;-64
2023/06/02 03:34:09;;;;;;;14.27;3.35;;;11.10;99.90;;;;;;5045685;28;20040;-63
2023/06/02 03:36:35;;;;;;;16.48;4.13;;;11.20;99.90;;;;;;5050272;28;20808;-65
2023/06/02 03:39:03;;;;;;;17.60;3.75;;;11.20;99.90;;;;;;5047196;28;20503;-64
2023/06/02 03:41:29;;;;;;;16.92;4.05;;;11.10;99.90;;;;;;5051751;28;20123;-65
2023/06/02 03:43:55;;;;;;;12.40;3.63;;;11.20;99.90;;;;;;5047368;28;20128;-66
2023/06/02 03:46:20;;;;;;;10.73;3.53;;;11.30;99.90;;;;;;5057655;28;20033;-64
2023/06/02 03:48:46;;;;;;;16.23;3.60;;;11.50;99.90;;;;;;5051723;28;20087;-65
2023/06/02 03:51:11;;;;;;;10.73;3.33;;;11.60;99.90;;;;;;5051551;28;20032;-63
2023/06/02 03:53:37;;;;;;;12.85;3.92;;;11.40;99.90;;;;;;5052719;28;20024;-64
2023/06/02 03:56:02;;;;;;;12.25;3.50;;;11.40;99.90;;;;;;5053273;28;20052;-63
2023/06/02 03:58:28;;;;;;;15.63;3.75;;;11.40;99.90;;;;;;5054791;28;20492;-64
2023/06/02 04:00:54;;;;;;;13.27;3.83;;;11.40;99.90;;;;;;5053091;28;20127;-65
2023/06/02 04:03:21;;;;;;;18.67;4.80;;;11.40;99.90;;;;;;5053111;28;20525;-64
2023/06/02 04:05:46;;;;;;;15.13;4.00;;;11.30;99.90;;;;;;5051494;28;20083;-64
2023/06/02 04:08:14;;;;;;;19.20;4.55;;;11.40;99.90;;;;;;5054874;28;20041;-65
2023/06/02 04:10:40;;;;;;;17.90;4.20;;;11.30;99.90;;;;;;5054787;28;20024;-64
2023/06/02 04:13:05;;;;;;;12.32;3.65;;;11.20;99.90;;;;;;5054001;28;20396;-64
2023/06/02 04:15:31;;;;;;;17.58;4.03;;;11.40;99.90;;;;;;5054575;28;20123;-64
2023/06/02 04:17:57;;;;;;;16.05;3.85;;;11.50;99.90;;;;;;5051353;28;20036;-64
2023/06/02 04:20:23;;;;;;;13.95;3.78;;;11.50;99.90;;;;;;5051871;28;20025;-64
2023/06/02 04:22:48;;;;;;;19.10;4.60;;;11.40;99.90;;;;;;5054582;28;20079;-65
2023/06/02 04:25:14;;;;;;;12.68;4.25;;;11.50;99.90;;;;;;5054755;28;20033;-64
2023/06/02 04:27:39;;;;;;;15.18;4.90;;;11.30;99.90;;;;;;5052105;28;20041;-65
2023/06/02 04:30:06;;;;;;;18.25;6.05;;;11.50;99.90;;;;;;5050970;28;20116;-64
2023/06/02 04:32:32;;;;;;;17.65;8.90;;;11.50;99.90;;;;;;5056360;28;20550;-64
2023/06/02 04:34:58;;;;;;;22.65;7.75;;;11.40;99.90;;;;;;5053527;28;20029;-64
2023/06/02 04:37:25;;;;;;;17.95;7.65;;;11.40;99.90;;;;;;5055261;28;20036;-65
2023/06/02 04:39:51;;;;;;;14.38;6.05;;;11.30;99.90;;;;;;5056415;28;20037;-65
2023/06/02 04:42:17;;;;;;;14.27;6.07;;;11.30;99.90;;;;;;5058427;28;20036;-64
2023/06/02 04:44:44;;;;;;;18.02;5.30;;;11.40;99.90;;;;;;5052518;28;20213;-66
2023/06/02 04:47:10;;;;;;;15.50;4.97;;;11.50;99.90;;;;;;5054134;28;20048;-63
2023/06/02 04:49:36;;;;;;;19.67;5.20;;;11.50;99.90;;;;;;5055300;28;20385;-63
2023/06/02 04:52:07;;;;;;;15.07;4.57;;;11.50;99.90;;;;;;5056583;28;20036;-62
2023/06/02 04:54:33;;;;;;;14.48;4.43;;;11.50;99.90;;;;;;5054128;28;20029;-63
2023/06/02 04:56:58;;;;;;;16.73;4.50;;;11.50;99.90;;;;;;5054552;28;20037;-62
2023/06/02 04:59:24;;;;;;;17.13;4.78;;;11.30;99.90;;;;;;5052179;28;20086;-63
2023/06/02 05:01:50;;;;;;;14.10;4.80;;;11.40;99.90;;;;;;5058734;28;20036;-63
2023/06/02 05:04:15;;;;;;;12.70;4.15;;;11.40;99.90;;;;;;5054212;28;20029;-62
2023/06/02 05:06:41;;;;;;;16.80;4.95;;;11.40;99.90;;;;;;5056127;28;20052;-62
2023/06/02 05:09:06;;;;;;;15.57;4.40;;;11.30;99.90;;;;;;5060888;28;20451;-62
2023/06/02 05:11:32;;;;;;;14.50;4.90;;;11.30;99.90;;;;;;5056647;28;20043;-64
2023/06/02 05:13:58;;;;;;;22.25;5.25;;;11.40;99.90;;;;;;5049796;28;20052;-67
2023/06/02 05:16:24;;;;;;;36.92;22.42;;;11.40;99.90;;;;;;5055353;28;20029;-63
2023/06/02 05:18:50;;;;;;;16.15;4.40;;;11.60;99.90;;;;;;5053811;28;20044;-63
2023/06/02 05:21:15;;;;;;;10.82;4.38;;;11.50;99.90;;;;;;5044141;28;20536;-63
2023/06/02 05:23:41;;;;;;;13.90;4.47;;;11.50;99.90;;;;;;5058320;28;20072;-63
2023/06/02 05:26:07;;;;;;;13.13;4.00;;;11.60;99.90;;;;;;5049136;28;20029;-63
2023/06/02 05:28:32;;;;;;;16.30;4.00;;;11.50;99.90;;;;;;5056681;28;20045;-63
2023/06/02 05:30:58;;;;;;;16.50;4.40;;;11.60;99.90;;;;;;5053694;28;20479;-63
2023/06/02 05:33:24;;;;;;;16.98;4.40;;;11.60;99.90;;;;;;5053518;28;20033;-63
2023/06/02 05:35:49;;;;;;;17.33;4.30;;;11.70;99.90;;;;;;5056372;28;20058;-63
2023/06/02 05:38:17;;;;;;;10.48;4.20;;;11.50;99.90;;;;;;5053411;28;20041;-63
2023/06/02 05:40:43;;;;;;;9.00;3.60;;;11.40;99.90;;;;;;5050989;28;21048;-63
2023/06/02 05:43:09;;;;;;;12.27;3.75;;;11.30;99.90;;;;;;5058253;28;20056;-63
2023/06/02 05:45:35;;;;;;;15.48;4.03;;;11.50;99.90;;;;;;5059679;28;20485;-63
2023/06/02 05:48:00;;;;;;;12.25;4.13;;;11.50;99.90;;;;;;5059271;28;20040;-64
2023/06/02 05:50:26;;;;;;;10.43;3.60;;;11.60;99.90;;;;;;5061568;28;20040;-63
2023/06/02 05:52:51;;;;;;;17.02;4.93;;;11.40;99.90;;;;;;5057102;28;20048;-63
2023/06/02 05:55:17;;;;;;;11.82;4.13;;;11.50;99.90;;;;;;5052824;28;20037;-64
2023/06/02 05:57:43;;;;;;;15.57;4.00;;;11.40;99.90;;;;;;5056016;28;20029;-64
2023/06/02 06:00:09;;;;;;;14.02;4.50;;;11.40;99.90;;;;;;5064066;28;20459;-63
2023/06/02 06:02:35;;;;;;;13.85;4.18;;;11.60;99.90;;;;;;5060581;28;20439;-63
2023/06/02 06:05:00;;;;;;;14.38;4.45;;;11.60;99.90;;;;;;5053391;28;20037;-63
2023/06/02 06:07:26;;;;;;;12.20;3.85;;;11.50;99.90;;;;;;5053599;28;20067;-63
2023/06/02 06:09:52;;;;;;;10.82;4.18;;;11.60;99.90;;;;;;5050744;28;20037;-63
2023/06/02 06:12:17;;;;;;;14.02;4.15;;;11.40;99.90;;;;;;5052138;28;20033;-63
2023/06/02 06:14:43;;;;;;;12.10;4.45;;;11.50;99.90;;;;;;5058639;28;20277;-64
2023/06/02 06:17:09;;;;;;;11.05;3.75;;;11.50;99.90;;;;;;5047308;28;20057;-63
2023/06/02 06:19:35;;;;;;;16.80;4.95;;;11.50;99.90;;;;;;5055015;28;20128;-63
2023/06/02 06:22:01;;;;;;;12.15;4.32;;;11.40;99.90;;;;;;5053581;28;20039;-65
2023/06/02 06:24:26;;;;;;;14.40;5.07;;;11.30;99.90;;;;;;5051081;28;20102;-62
2023/06/02 06:26:52;;;;;;;10.30;3.90;;;11.30;99.90;;;;;;5053053;28;20051;-62
2023/06/02 06:29:17;;;;;;;15.95;4.25;;;11.50;99.90;;;;;;5053952;28;20033;-62
2023/06/02 06:31:43;;;;;;;15.77;4.28;;;11.60;99.90;;;;;;5055429;28;20741;-62
2023/06/02 06:34:10;;;;;;;15.73;4.13;;;11.50;99.90;;;;;;5055469;28;20346;-61
2023/06/02 06:36:36;;;;;;;11.10;4.35;;;11.50;99.90;;;;;;5050054;28;20485;-62
2023/06/02 06:39:02;;;;;;;15.23;4.70;;;11.50;99.90;;;;;;5050734;28;20033;-61
2023/06/02 06:41:28;;;;;;;15.30;4.22;;;11.30;99.90;;;;;;5055821;28;20032;-61
2023/06/02 06:43:54;;;;;;;15.10;4.22;;;11.30;99.90;;;;;;5058090;28;20124;-61
2023/06/02 06:46:19;;;;;;;15.68;4.30;;;11.50;99.90;;;;;;5056920;28;20020;-62
2023/06/02 06:48:45;;;;;;;17.25;4.68;;;11.40;99.90;;;;;;5056288;28;20139;-62
2023/06/02 06:51:11;;;;;;;12.82;3.90;;;11.50;99.90;;;;;;5052451;28;20044;-62
2023/06/02 06:53:36;;;;;;;13.68;4.00;;;11.50;99.90;;;;;;5064159;28;20388;-62
2023/06/02 06:56:02;;;;;;;15.55;4.65;;;11.60;99.90;;;;;;5060308;28;20033;-61
2023/06/02 06:58:29;;;;;;;11.48;3.83;;;11.60;99.90;;;;;;5052698;28;20098;-62
2023/06/02 07:00:54;;;;;;;12.52;4.50;;;11.90;99.90;;;;;;5054129;28;20049;-62
2023/06/02 07:03:20;;;;;;;23.35;4.50;;;11.90;99.90;;;;;;5051297;28;20139;-62
2023/06/02 07:05:46;;;;;;;16.48;4.10;;;11.80;99.90;;;;;;5056507;28;20028;-62
2023/06/02 07:08:12;;;;;;;14.73;5.32;;;12.00;99.90;;;;;;5060992;28;20470;-62
2023/06/02 07:10:37;;;;;;;15.48;5.38;;;11.80;99.90;;;;;;5057237;28;20028;-62
2023/06/02 07:13:03;;;;;;;13.75;4.97;;;11.90;99.90;;;;;;5054311;28;20045;-62
2023/06/02 07:15:28;;;;;;;14.00;5.20;;;11.80;99.90;;;;;;5062236;28;20062;-62
2023/06/02 07:17:54;;;;;;;14.15;5.57;;;12.00;99.90;;;;;;5056224;28;20041;-62
2023/06/02 07:20:20;;;;;;;13.93;5.18;;;11.80;99.90;;;;;;5055114;28;20051;-62
2023/06/02 07:22:45;;;;;;;19.60;5.82;;;12.10;99.90;;;;;;5062306;28;20029;-64
2023/06/02 07:25:11;;;;;;;117.57;74.38;;;12.10;99.90;;;;;;5059618;28;20064;-62
2023/06/02 07:27:36;;;;;;;14.70;4.80;;;12.20;99.90;;;;;;5058032;28;20484;-62
2023/06/02 07:30:03;;;;;;;18.25;5.70;;;12.20;99.90;;;;;;5052751;28;20037;-62
2023/06/02 07:32:29;;;;;;;13.60;6.00;;;12.10;99.90;;;;;;5052493;28;20575;-61
2023/06/02 07:34:55;;;;;;;16.67;6.57;;;12.10;99.90;;;;;;5061422;28;20119;-62
2023/06/02 07:37:20;;;;;;;13.40;5.55;;;11.90;99.90;;;;;;5058777;28;20036;-62
2023/06/02 07:39:46;;;;;;;15.77;6.10;;;12.10;99.90;;;;;;5055756;28;20420;-62
2023/06/02 07:42:12;;;;;;;15.32;6.00;;;10.40;99.90;;;;;;5056136;28;20052;-62
2023/06/02 07:44:37;;;;;;;9.52;4.68;;;12.30;99.90;;;;;;5057158;28;20477;-62
2023/06/02 07:47:07;;;;;;;14.80;5.10;;;12.10;99.90;;;;;;5051310;28;20044;-62
2023/06/02 07:49:33;;;;;;;12.82;4.05;;;12.10;99.90;;;;;;5052494;28;20051;-62
2023/06/02 07:52:02;;;;;;;13.68;4.97;;;12.20;99.90;;;;;;5059758;28;20052;-61
2023/06/02 07:54:28;;;;;;;15.48;5.88;;;12.40;99.90;;;;;;5056515;28;20057;-61
2023/06/02 07:56:53;;;;;;;15.10;4.95;;;12.50;99.90;;;;;;5057365;28;20516;-62
2023/06/02 07:59:19;;;;;;;18.00;6.00;;;12.60;99.90;;;;;;5052247;28;20052;-62
2023/06/02 08:01:45;;;;;;;16.15;5.10;;;12.50;99.90;;;;;;5054291;28;20036;-62
2023/06/02 08:04:11;;;;;;;15.20;4.55;;;12.60;99.90;;;;;;5048558;28;20132;-61
2023/06/02 08:06:37;;;;;;;12.75;4.57;;;12.80;99.90;;;;;;5055298;28;20111;-64
2023/06/02 08:09:04;;;;;;;13.85;4.65;;;12.80;99.90;;;;;;5050256;28;20119;-62
2023/06/02 08:11:30;;;;;;;14.50;4.80;;;12.80;99.90;;;;;;5059260;28;20024;-63
2023/06/02 08:13:56;;;;;;;13.20;5.78;;;13.00;99.90;;;;;;5058912;28;20132;-62
2023/06/02 08:16:22;;;;;;;12.50;5.90;;;12.50;99.90;;;;;;5048782;28;20037;-63
2023/06/02 08:18:48;;;;;;;16.75;7.20;;;12.80;99.90;;;;;;5060709;28;20536;-63
2023/06/02 08:21:13;;;;;;;19.80;8.50;;;12.90;99.90;;;;;;5051168;28;20067;-63
2023/06/02 08:23:39;;;;;;;16.80;10.70;;;13.00;99.90;;;;;;5060317;28;20112;-63
2023/06/02 08:26:06;;;;;;;18.65;10.82;;;13.00;99.90;;;;;;5064023;28;20472;-62
2023/06/02 08:28:33;;;;;;;21.52;11.10;;;13.30;99.90;;;;;;5059783;28;20044;-63
2023/06/02 08:30:59;;;;;;;20.92;13.10;;;13.50;99.90;;;;;;5055837;28;20047;-63
2023/06/02 08:33:26;;;;;;;19.08;12.13;;;13.10;99.90;;;;;;5059711;28;20106;-63
2023/06/02 08:35:52;;;;;;;22.70;12.50;;;12.90;99.90;;;;;;5065248;28;20037;-63
2023/06/02 08:38:18;;;;;;;25.75;13.20;;;13.00;99.90;;;;;;5058068;28;20029;-63
2023/06/02 08:40:46;;;;;;;20.95;11.27;;;13.20;99.90;;;;;;5060971;28;20060;-63
2023/06/02 08:43:13;;;;;;;23.23;10.20;;;13.30;99.90;;;;;;5064381;28;20110;-63
2023/06/02 08:45:49;;;;;;;18.23;9.27;;;13.60;99.90;;;;;;5058352;28;20367;-64
2023/06/02 08:48:17;;;;;;;18.60;9.65;;;13.50;99.90;;;;;;5060287;28;20036;-64
2023/06/02 08:50:50;;;;;;;17.48;8.68;;;13.20;99.90;;;;;;5063460;28;20040;-63
2023/06/02 08:53:19;;;;;;;16.05;8.63;;;13.30;99.90;;;;;;5061430;28;20051;-63
2023/06/02 08:55:48;;;;;;;20.65;8.25;;;13.20;99.90;;;;;;5059388;28;20433;-63
2023/06/02 08:58:13;;;;;;;13.85;7.13;;;13.30;99.90;;;;;;5066521;28;20028;-63
2023/06/02 09:00:39;;;;;;;13.80;6.88;;;13.30;99.90;;;;;;5064870;28;20021;-63
2023/06/02 09:03:05;;;;;;;17.10;8.70;;;13.50;99.90;;;;;;5059381;28;20107;-63
2023/06/02 09:05:34;;;;;;;19.27;9.20;;;13.30;99.90;;;;;;5060504;28;20028;-63
2023/06/02 09:08:11;;;;;;;16.65;11.20;;;13.80;99.90;;;;;;5058243;28;20052;-63
2023/06/02 09:10:40;;;;;;;17.02;10.55;;;13.50;99.90;;;;;;5058834;28;20120;-63
2023/06/02 09:13:30;;;;;;;21.98;13.18;;;13.00;99.90;;;;;;5053196;28;20388;-59
2023/06/02 09:16:00;;;;;;;33.33;17.75;;;13.30;99.90;;;;;;5059123;28;20086;-65
2023/06/02 09:18:25;;;;;;;22.65;13.30;;;13.90;99.90;;;;;;5057622;28;20067;-62
2023/06/02 09:20:52;;;;;;;19.17;8.10;;;14.30;99.90;;;;;;5064582;28;20040;-62
2023/06/02 09:23:18;;;;;;;21.55;8.13;;;13.90;99.90;;;;;;5055844;28;20029;-62
2023/06/02 09:25:45;;;;;;;15.73;9.05;;;14.00;99.90;;;;;;5062115;28;20147;-62
2023/06/02 09:28:11;;;;;;;21.83;8.80;;;13.70;99.90;;;;;;5053115;28;20139;-62
2023/06/02 09:30:37;;;;;;;23.40;9.48;;;14.20;99.90;;;;;;5052894;28;20033;-62
2023/06/02 09:33:14;;;;;;;17.77;8.55;;;14.40;99.90;;;;;;5059911;28;20496;-61
2023/06/02 09:35:45;;;;;;;15.57;7.57;;;14.60;99.90;;;;;;5060458;28;20032;-61
2023/06/02 09:38:13;;;;;;;16.15;8.10;;;14.50;99.90;;;;;;5054100;28;20112;-61
2023/06/02 09:40:40;;;;;;;22.23;9.93;;;14.10;99.90;;;;;;5059565;28;20025;-67
2023/06/02 09:43:07;;;;;;;18.20;9.77;;;14.30;99.90;;;;;;5055173;28;20059;-64
2023/06/02 09:45:54;;;;;;;15.55;8.75;;;14.50;99.90;;;;;;5053938;28;20388;-65
2023/06/02 09:48:23;;;;;;;19.52;9.88;;;14.90;99.90;;;;;;5057524;28;20036;-64
2023/06/02 09:50:49;;;;;;;16.10;8.48;;;14.70;99.90;;;;;;5057985;28;20574;-65
2023/06/02 09:53:17;;;;;;;17.98;8.60;;;14.60;99.90;;;;;;5063364;28;20632;-65
2023/06/02 09:55:45;;;;;;;18.58;8.52;;;14.60;99.90;;;;;;5052734;28;20029;-65
2023/06/02 09:58:11;;;;;;;19.27;7.20;;;14.60;99.90;;;;;;5047992;28;20494;-66
2023/06/02 10:00:39;;;;;;;19.23;7.50;;;15.10;99.90;;;;;;5060605;28;20495;-64
2023/06/02 10:03:06;;;;;;;19.77;7.60;;;14.80;99.90;;;;;;5055269;28;20492;-65
2023/06/02 10:05:33;;;;;;;17.63;7.93;;;15.20;99.90;;;;;;5055323;28;20064;-65
2023/06/02 10:08:41;;;;;;;14.63;6.72;;;15.90;99.90;;;;;;5062703;28;20573;-65
2023/06/02 10:11:21;;;;;;;16.80;6.32;;;15.50;99.90;;;;;;5049965;28;20033;-64
2023/06/02 10:13:59;;;;;;;17.42;6.70;;;15.10;99.90;;;;;;5053556;28;20047;-65
2023/06/02 10:16:53;;;;;;;18.33;6.70;;;15.10;99.90;;;;;;5053851;28;20049;-65
2023/06/02 10:19:37;;;;;;;13.63;5.82;;;15.30;99.90;;;;;;5056268;28;20029;-65
2023/06/02 10:22:23;;;;;;;17.45;5.97;;;15.70;99.90;;;;;;5055525;28;20025;-65
2023/06/02 10:25:03;;;;;;;19.25;7.47;;;15.50;99.90;;;;;;5035732;28;20071;-65
2023/06/02 10:27:34;;;;;;;16.35;7.65;;;15.60;99.90;;;;;;5053145;28;20492;-66
2023/06/02 10:30:00;;;;;;;19.45;7.72;;;15.60;99.90;;;;;;5055802;28;20680;-65
2023/06/02 10:32:27;;;;;;;19.73;6.93;;;15.40;99.90;;;;;;5062425;28;20047;-65
2023/06/02 10:34:54;;;;;;;17.00;7.38;;;15.70;99.90;;;;;;5057431;28;20047;-65
2023/06/02 10:37:21;;;;;;;17.20;6.72;;;15.60;99.90;;;;;;5055398;28;20105;-65
2023/06/02 10:39:51;;;;;;;17.13;6.88;;;16.10;99.90;;;;;;5051375;28;20098;-65
2023/06/02 10:42:17;;;;;;;20.27;8.05;;;16.80;99.90;;;;;;5063248;28;20215;-66
2023/06/02 10:44:44;;;;;;;17.67;7.20;;;16.20;99.90;;;;;;5052459;28;20107;-66
2023/06/02 10:47:18;;;;;;;19.05;7.82;;;16.10;99.90;;;;;;5054984;28;20036;-65
2023/06/02 10:49:53;;;;;;;15.00;6.97;;;16.10;99.90;;;;;;5051389;28;20028;-66
2023/06/02 10:52:20;;;;;;;16.60;7.18;;;16.30;99.90;;;;;;5051138;28;20041;-66
2023/06/02 10:55:12;;;;;;;13.98;7.47;;;16.10;99.90;;;;;;5051456;28;20192;-66
2023/06/02 10:58:01;;;;;;;19.00;6.40;;;16.00;99.90;;;;;;5053713;28;20111;-66
2023/06/02 11:00:32;;;;;;;15.93;6.85;;;16.40;99.90;;;;;;5055804;28;20028;-67
2023/06/02 11:03:20;;;;;;;16.52;7.07;;;16.10;99.90;;;;;;5054076;28;20032;-66
2023/06/02 11:05:47;;;;;;;17.90;6.03;;;16.00;99.90;;;;;;5052857;28;20039;-68
2023/06/02 11:08:16;;;;;;;11.70;6.68;;;16.00;99.90;;;;;;5055467;28;20037;-66
2023/06/02 11:10:43;;;;;;;16.05;5.85;;;15.70;99.90;;;;;;5056319;28;20028;-66
2023/06/02 11:13:10;;;;;;;17.05;5.70;;;16.00;99.90;;;;;;5056485;28;20060;-66
2023/06/02 11:15:36;;;;;;;12.43;5.95;;;16.20;99.90;;;;;;5058594;28;20051;-66
2023/06/02 11:18:21;;;;;;;13.07;5.97;;;15.90;99.90;;;;;;5059927;28;20036;-64
2023/06/02 11:20:51;;;;;;;15.23;6.47;;;16.30;99.90;;;;;;5060546;28;20071;-73
2023/06/02 11:23:18;;;;;;;13.68;5.97;;;16.40;99.90;;;;;;5058934;28;20029;-72
2023/06/02 11:25:44;;;;;;;16.35;6.03;;;16.50;99.90;;;;;;5051530;28;20400;-73
2023/06/02 11:28:20;;;;;;;15.55;5.60;;;16.40;99.90;;;;;;5049924;28;20068;-69
2023/06/02 11:30:46;;;;;;;17.08;5.75;;;16.30;99.90;;;;;;5054260;28;20033;-69
2023/06/02 11:33:12;;;;;;;18.23;6.25;;;16.50;99.90;;;;;;5057122;28;20044;-65
2023/06/02 11:35:37;;;;;;;14.50;6.30;;;16.40;99.90;;;;;;5053992;28;20051;-64
2023/06/02 11:38:06;;;;;;;14.45;6.35;;;17.30;99.90;;;;;;5059894;28;20025;-65
2023/06/02 11:40:33;;;;;;;17.25;5.88;;;17.00;99.90;;;;;;5055623;28;20064;-65
2023/06/02 11:42:59;;;;;;;14.85;5.75;;;16.90;99.90;;;;;;5057690;28;20064;-65
2023/06/02 11:45:26;;;;;;;14.07;5.60;;;16.20;99.90;;;;;;5055753;28;20240;-64
2023/06/02 11:48:01;;;;;;;15.23;6.60;;;16.40;99.90;;;;;;5049679;28;20037;-65
2023/06/02 11:50:28;;;;;;;15.25;6.47;;;16.20;99.90;;;;;;5059167;28;20496;-64
2023/06/02 11:52:55;;;;;;;12.73;6.00;;;16.20;99.90;;;;;;5051365;28;20052;-64
2023/06/02 11:55:25;;;;;;;16.23;6.43;;;16.40;99.90;;;;;;5052188;28;20029;-65
2023/06/02 11:57:50;;;;;;;14.45;6.20;;;16.40;99.90;;;;;;5057405;28;20488;-64
2023/06/02 12:00:16;;;;;;;18.92;5.55;;;16.50;99.90;;;;;;5054879;28;20037;-65
2023/06/02 12:02:53;;;;;;;15.80;5.50;;;16.60;99.90;;;;;;5051016;28;20033;-65
2023/06/02 12:05:32;;;;;;;19.95;6.50;;;16.60;99.90;;;;;;5052482;28;20515;-64
2023/06/02 12:08:07;;;;;;;11.68;5.68;;;16.80;99.90;;;;;;5059880;28;20412;-64
2023/06/02 12:10:33;;;;;;;13.77;6.07;;;16.50;99.90;;;;;;5055390;28;20033;-68
2023/06/02 12:12:59;;;;;;;16.52;6.13;;;16.70;99.90;;;;;;5055117;28;20079;-66
2023/06/02 12:15:32;;;;;;;16.45;5.60;;;16.80;99.90;;;;;;5063584;28;20056;-64
2023/06/02 12:18:03;;;;;;;13.07;5.40;;;16.80;99.90;;;;;;5055114;28;20067;-65
2023/06/02 12:20:41;;;;;;;11.50;5.65;;;16.60;99.90;;;;;;5060617;28;20062;-64
2023/06/02 12:23:08;;;;;;;18.17;6.15;;;16.40;99.90;;;;;;5061670;28;20032;-64
2023/06/02 12:25:34;;;;;;;14.25;5.95;;;16.40;99.90;;;;;;5064082;28;20514;-65
2023/06/02 12:28:13;;;;;;;13.65;5.53;;;16.50;99.90;;;;;;5064113;28;20040;-68
2023/06/02 12:30:40;;;;;;;16.85;5.30;;;17.00;99.90;;;;;;5056379;28;20448;-67
2023/06/02 12:33:11;;;;;;;14.15;5.05;;;16.90;99.90;;;;;;5054196;28;20553;-66
2023/06/02 12:35:37;;;;;;;12.57;4.90;;;16.80;99.90;;;;;;5057191;28;20593;-67
2023/06/02 12:38:04;;;;;;;13.25;5.50;;;16.90;99.90;;;;;;5052679;28;20488;-67
2023/06/02 12:40:31;;;;;;;13.98;5.65;;;16.70;99.90;;;;;;5057068;28;20056;-67